Time;durP1;ratioP1;P1;durP2;ratioP2;P2;SDS_P1;SDS_P2;PMS_P1;PMS_P2;Temp;Humidity;BMP_temperature;BMP_pressure;BME280_temperature;BME280_humidity;BME280_pressure;Samples;Min_cycle;Max_cycle;Signal;HPM_P1;HPM_P2
2022/11/05 00:10:21;;;;;;;13.30;8.10;;;9.10;99.90;;;;;;4144691;28;20482;-76
2022/11/05 00:17:03;;;;;;;14.53;7.50;;;9.10;99.90;;;;;;4146512;28;20770;-76
2022/11/05 00:19:08;;;;;;;15.07;8.50;;;9.00;99.90;;;;;;4146676;28;21018;-76
2022/11/05 00:25:54;;;;;;;15.27;8.50;;;9.00;99.90;;;;;;4145107;28;20477;-76
2022/11/05 00:28:00;;;;;;;17.07;8.90;;;9.00;99.90;;;;;;4144866;28;20788;-76
2022/11/05 00:30:02;;;;;;;14.90;8.63;;;9.00;99.90;;;;;;4145852;28;20231;-77
2022/11/05 00:32:06;;;;;;;15.73;8.80;;;9.00;99.90;;;;;;4147533;28;20661;-76
2022/11/05 00:34:08;;;;;;;13.90;8.63;;;9.00;99.90;;;;;;4143528;28;20668;-76
2022/11/05 00:36:11;;;;;;;13.73;8.17;;;9.00;99.90;;;;;;4147151;28;20228;-76
2022/11/05 00:38:12;;;;;;;12.07;7.87;;;9.00;99.90;;;;;;4147067;28;20293;-77
2022/11/05 00:40:15;;;;;;;12.27;7.80;;;9.00;99.90;;;;;;4146761;28;20326;-77
2022/11/05 00:49:28;;;;;;;14.57;8.27;;;9.00;99.90;;;;;;4146268;28;20206;-76
2022/11/05 00:49:30;;;;;;;18.40;8.63;;;9.00;99.90;;;;;;4145690;28;20620;-77
2022/11/05 00:51:31;;;;;;;14.20;8.50;;;9.00;99.90;;;;;;4143910;28;20236;-76
2022/11/05 00:53:34;;;;;;;15.27;8.67;;;9.00;99.90;;;;;;4146393;28;20538;-76
2022/11/05 00:55:38;;;;;;;16.10;8.93;;;9.00;99.90;;;;;;4144305;28;20492;-76
2022/11/05 00:57:40;;;;;;;16.10;9.10;;;9.00;99.90;;;;;;4145237;28;20242;-77
2022/11/05 00:59:42;;;;;;;15.80;9.40;;;8.90;99.90;;;;;;4143941;28;20556;-77
2022/11/05 01:01:44;;;;;;;15.40;8.33;;;8.90;99.90;;;;;;4142266;28;20208;-76
2022/11/05 01:03:45;;;;;;;13.87;7.93;;;8.90;99.90;;;;;;4145628;28;20917;-76
2022/11/05 01:05:50;;;;;;;15.73;8.27;;;8.90;99.90;;;;;;4145368;28;20897;-76
2022/11/05 01:07:52;;;;;;;15.50;8.80;;;8.90;99.90;;;;;;4145915;28;20454;-76
2022/11/05 01:09:54;;;;;;;13.93;7.60;;;8.90;99.90;;;;;;4146310;28;20309;-76
2022/11/05 01:11:56;;;;;;;13.47;8.07;;;8.90;99.90;;;;;;4143387;28;20466;-76
2022/11/05 01:13:59;;;;;;;12.57;8.20;;;8.90;99.90;;;;;;4145550;28;20501;-76
2022/11/05 01:16:06;;;;;;;16.63;8.17;;;8.90;99.90;;;;;;4145217;28;20825;-76
2022/11/05 01:18:08;;;;;;;13.60;8.33;;;8.90;99.90;;;;;;4147864;28;20458;-76
2022/11/05 01:20:11;;;;;;;16.13;9.03;;;8.90;99.90;;;;;;4144528;28;20557;-77
2022/11/05 01:22:14;;;;;;;17.30;9.17;;;8.90;99.90;;;;;;4145618;28;20469;-75
2022/11/05 01:24:16;;;;;;;13.50;8.00;;;8.90;99.90;;;;;;4149576;28;20458;-76
2022/11/05 01:26:18;;;;;;;17.07;8.23;;;9.00;99.90;;;;;;4146231;28;20449;-77
2022/11/05 01:28:19;;;;;;;16.10;8.23;;;8.90;99.90;;;;;;4143997;28;20469;-77
2022/11/05 01:30:22;;;;;;;14.30;8.83;;;8.90;99.90;;;;;;4144768;28;20569;-76
2022/11/05 01:32:23;;;;;;;15.23;9.00;;;8.90;99.90;;;;;;4145306;28;20461;-76
2022/11/05 01:34:25;;;;;;;15.97;8.90;;;8.90;99.90;;;;;;4148910;28;20490;-76
2022/11/05 01:36:27;;;;;;;13.90;8.20;;;8.90;99.90;;;;;;4148692;28;20231;-76
2022/11/05 01:38:30;;;;;;;15.60;8.57;;;8.90;99.90;;;;;;4143178;28;20466;-76
2022/11/05 01:40:32;;;;;;;16.67;9.00;;;8.90;99.90;;;;;;4146274;28;20487;-76
2022/11/05 01:42:34;;;;;;;17.63;9.53;;;8.90;99.90;;;;;;4146045;28;20504;-77
2022/11/05 01:44:59;;;;;;;17.53;9.03;;;8.80;99.90;;;;;;4145360;28;20472;-77
2022/11/05 01:47:01;;;;;;;15.23;9.10;;;8.80;99.90;;;;;;4143735;28;20474;-77
2022/11/05 01:49:13;;;;;;;17.43;9.43;;;8.80;99.90;;;;;;4144174;28;20469;-77
2022/11/05 01:51:20;;;;;;;16.60;9.90;;;8.80;99.90;;;;;;4145943;28;21018;-76
2022/11/05 01:53:27;;;;;;;18.63;9.60;;;8.80;99.90;;;;;;4145134;28;20468;-77
2022/11/05 01:55:34;;;;;;;18.47;10.00;;;8.80;99.90;;;;;;4150756;28;20469;-77
2022/11/05 01:57:39;;;;;;;17.30;10.10;;;8.80;99.90;;;;;;4144925;28;20468;-78
2022/11/05 01:59:44;;;;;;;21.07;10.20;;;8.80;99.90;;;;;;4143472;28;20577;-77
2022/11/05 02:01:46;;;;;;;17.60;10.23;;;8.70;99.90;;;;;;4148505;28;20542;-76
2022/11/05 02:03:50;;;;;;;17.90;9.40;;;8.70;99.90;;;;;;4148353;28;20501;-76
2022/11/05 02:05:53;;;;;;;17.00;9.53;;;8.70;99.90;;;;;;4147434;28;20536;-77
2022/11/05 02:07:56;;;;;;;22.60;11.30;;;8.70;99.90;;;;;;4145180;28;20532;-76
2022/11/05 02:10:02;;;;;;;20.67;10.27;;;8.70;99.90;;;;;;4141470;28;20502;-77
2022/11/05 02:12:07;;;;;;;21.53;11.03;;;8.70;99.90;;;;;;4143992;28;20543;-76
2022/11/05 02:14:09;;;;;;;17.83;10.23;;;8.70;99.90;;;;;;4145306;28;20465;-77
2022/11/05 02:16:17;;;;;;;17.03;9.70;;;8.70;99.90;;;;;;4144775;28;20490;-77
2022/11/05 02:18:26;;;;;;;25.70;11.27;;;8.70;99.90;;;;;;4145605;28;20541;-76
2022/11/05 02:20:40;;;;;;;18.30;10.27;;;8.70;99.90;;;;;;4144656;28;20578;-77
2022/11/05 02:23:11;;;;;;;18.47;10.30;;;8.60;99.90;;;;;;4144245;28;20509;-76
2022/11/05 02:25:35;;;;;;;21.87;10.70;;;8.60;99.90;;;;;;4145044;28;20462;-77
2022/11/05 02:28:03;;;;;;;19.97;10.03;;;8.60;99.90;;;;;;4147096;28;20487;-76
2022/11/05 02:30:37;;;;;;;17.40;9.70;;;8.60;99.90;;;;;;4145780;28;20577;-76
2022/11/05 02:33:06;;;;;;;18.37;9.80;;;8.60;99.90;;;;;;4146344;28;20494;-76
2022/11/05 02:35:19;;;;;;;19.67;10.23;;;8.60;99.90;;;;;;4163226;28;21186;-76
2022/11/05 02:37:30;;;;;;;17.77;9.50;;;8.60;99.90;;;;;;4149662;28;20516;-76
2022/11/05 02:39:41;;;;;;;16.97;9.53;;;8.60;99.90;;;;;;4146794;28;20470;-76
2022/11/05 02:41:50;;;;;;;18.80;9.47;;;8.60;99.90;;;;;;4146958;28;20454;-76
2022/11/05 02:44:06;;;;;;;16.60;9.60;;;8.60;99.90;;;;;;4145883;28;20836;-77
2022/11/05 02:46:25;;;;;;;17.10;9.50;;;8.60;99.90;;;;;;4147272;28;20454;-78
2022/11/05 02:48:34;;;;;;;16.23;9.23;;;8.60;99.90;;;;;;4151227;28;20465;-77
2022/11/05 02:50:43;;;;;;;16.23;9.00;;;8.60;99.90;;;;;;4147662;28;20478;-78
2022/11/05 02:52:56;;;;;;;14.93;8.57;;;8.60;99.90;;;;;;4147500;28;20544;-77
2022/11/05 02:55:06;;;;;;;16.03;8.33;;;8.60;99.90;;;;;;4147734;28;20543;-77
2022/11/05 02:57:08;;;;;;;15.90;8.87;;;8.60;99.90;;;;;;4148240;28;20911;-78
2022/11/05 02:59:10;;;;;;;14.80;8.87;;;8.60;99.90;;;;;;4150391;28;20930;-77
2022/11/05 03:01:14;;;;;;;15.30;8.60;;;8.60;99.90;;;;;;4149337;28;20936;-76
2022/11/05 03:03:22;;;;;;;15.77;8.27;;;8.60;99.90;;;;;;4144685;28;20550;-77
2022/11/05 03:05:35;;;;;;;17.47;9.27;;;8.60;99.90;;;;;;4148046;28;20495;-77
2022/11/05 03:07:49;;;;;;;17.73;9.20;;;8.60;99.90;;;;;;4148054;28;20541;-76
2022/11/05 03:10:12;;;;;;;15.63;8.63;;;8.60;99.90;;;;;;4146944;28;20994;-76
2022/11/05 03:12:25;;;;;;;12.83;8.33;;;8.60;99.90;;;;;;4146842;28;20473;-76
2022/11/05 03:14:36;;;;;;;18.87;8.50;;;8.60;99.90;;;;;;4149851;28;20795;-76
2022/11/05 03:16:41;;;;;;;16.80;8.37;;;8.60;99.90;;;;;;4148258;28;20488;-76
2022/11/05 03:18:50;;;;;;;17.37;9.10;;;8.60;99.90;;;;;;4149636;28;20454;-77
2022/11/05 03:21:00;;;;;;;15.40;8.37;;;8.60;99.90;;;;;;4148489;28;20494;-76
2022/11/05 03:23:09;;;;;;;15.63;8.60;;;8.50;99.90;;;;;;4147684;28;20451;-76
2022/11/05 03:25:15;;;;;;;16.40;8.47;;;8.50;99.90;;;;;;4147834;28;20471;-76
2022/11/05 03:27:21;;;;;;;16.10;9.20;;;8.50;99.90;;;;;;4146293;28;20572;-76
2022/11/05 03:29:26;;;;;;;18.67;9.60;;;8.50;99.90;;;;;;4145639;28;20470;-75
2022/11/05 03:31:30;;;;;;;20.10;9.53;;;8.50;99.90;;;;;;4146243;28;20481;-77
2022/11/05 03:33:36;;;;;;;18.47;9.80;;;8.50;99.90;;;;;;4146408;28;20557;-77
2022/11/05 03:35:41;;;;;;;15.97;9.10;;;8.50;99.90;;;;;;4147537;28;20993;-76
2022/11/05 03:37:48;;;;;;;13.70;8.17;;;8.50;99.90;;;;;;4145919;28;20939;-76
2022/11/05 03:39:54;;;;;;;16.37;8.70;;;8.50;99.90;;;;;;4145948;28;20912;-76
2022/11/05 03:41:57;;;;;;;16.13;8.23;;;8.50;99.90;;;;;;4145645;28;20468;-79
2022/11/05 03:44:03;;;;;;;15.43;8.47;;;8.50;99.90;;;;;;4147423;28;20458;-76
2022/11/05 03:46:09;;;;;;;12.90;7.70;;;8.50;99.90;;;;;;4145625;28;20450;-76
2022/11/05 03:48:13;;;;;;;14.43;7.90;;;8.50;99.90;;;;;;4145243;28;20481;-77
2022/11/05 03:50:21;;;;;;;14.77;7.60;;;8.50;99.90;;;;;;4146047;28;20492;-76
2022/11/05 03:52:28;;;;;;;14.10;7.80;;;8.50;99.90;;;;;;4146555;28;20475;-76
2022/11/05 03:54:30;;;;;;;15.83;8.10;;;8.50;99.90;;;;;;4147205;28;20885;-76
2022/11/05 03:56:37;;;;;;;18.47;8.70;;;8.50;99.90;;;;;;4146253;28;20589;-76
2022/11/05 03:58:42;;;;;;;14.50;7.60;;;8.50;99.90;;;;;;4145843;28;20519;-76
2022/11/05 04:00:44;;;;;;;14.57;7.97;;;8.50;99.90;;;;;;4143026;28;20510;-77
2022/11/05 04:02:46;;;;;;;13.83;7.53;;;8.50;99.90;;;;;;4145251;28;20453;-77
2022/11/05 04:04:48;;;;;;;13.23;7.17;;;8.50;99.90;;;;;;4146769;28;20651;-76
2022/11/05 04:13:50;;;;;;;14.73;7.03;;;8.40;99.90;;;;;;4152064;28;20454;-76
2022/11/05 04:18:12;;;;;;;13.07;6.63;;;8.40;99.90;;;;;;4146442;28;21046;-76
2022/11/05 04:24:55;;;;;;;11.83;6.03;;;8.40;99.90;;;;;;4162897;28;20520;-77
2022/11/05 04:26:58;;;;;;;13.83;6.60;;;8.40;99.90;;;;;;4146377;28;20469;-76
2022/11/05 04:31:19;;;;;;;11.10;6.07;;;8.40;99.90;;;;;;4146455;28;21029;-77
2022/11/05 04:33:21;;;;;;;9.90;5.67;;;8.30;99.90;;;;;;4146178;28;20460;-76
2022/11/05 04:35:23;;;;;;;10.50;5.97;;;8.30;99.90;;;;;;4141433;28;20502;-76
2022/11/05 04:37:25;;;;;;;9.03;5.77;;;8.30;99.90;;;;;;4145469;28;20482;-76
2022/11/05 04:39:28;;;;;;;9.30;5.23;;;8.30;99.90;;;;;;4148512;28;20994;-76
2022/11/05 04:41:30;;;;;;;8.87;5.90;;;8.30;99.90;;;;;;4164075;28;20537;-76
2022/11/05 04:43:32;;;;;;;9.20;5.70;;;8.30;99.90;;;;;;4146666;28;20458;-76
2022/11/05 04:45:41;;;;;;;12.27;6.23;;;8.20;99.90;;;;;;4148037;28;21025;-77
2022/11/05 04:47:43;;;;;;;12.27;6.60;;;8.20;99.90;;;;;;4146954;28;20478;-76
2022/11/05 04:49:45;;;;;;;11.33;6.20;;;8.20;99.90;;;;;;4144944;28;20990;-76
2022/11/05 04:51:46;;;;;;;10.77;6.37;;;8.20;99.90;;;;;;4145778;28;20513;-76
2022/11/05 04:53:48;;;;;;;17.00;7.93;;;8.10;99.90;;;;;;4146757;28;20474;-76
2022/11/05 04:55:51;;;;;;;13.73;6.60;;;8.10;99.90;;;;;;4145689;28;20836;-76
2022/11/05 04:57:54;;;;;;;14.43;7.07;;;8.10;99.90;;;;;;4148562;28;20490;-76
2022/11/05 04:59:56;;;;;;;14.53;7.20;;;8.10;99.90;;;;;;4147002;28;20927;-77
2022/11/05 05:01:58;;;;;;;17.53;8.13;;;8.10;99.90;;;;;;4146157;28;20553;-76
2022/11/05 05:04:00;;;;;;;15.93;8.00;;;8.10;99.90;;;;;;4145443;28;20888;-77
2022/11/05 05:06:02;;;;;;;15.60;8.43;;;8.10;99.90;;;;;;4143349;28;20494;-76
2022/11/05 05:08:05;;;;;;;15.33;7.67;;;8.00;99.90;;;;;;4145635;28;20469;-76
2022/11/05 05:10:09;;;;;;;16.80;8.60;;;8.00;99.90;;;;;;4145079;28;20859;-76
2022/11/05 05:12:12;;;;;;;12.73;7.13;;;8.00;99.90;;;;;;4144876;28;20462;-76
2022/11/05 05:14:14;;;;;;;15.60;7.93;;;7.90;99.90;;;;;;4146765;28;20955;-76
2022/11/05 05:16:20;;;;;;;12.77;7.17;;;7.90;99.90;;;;;;4145801;28;20458;-75
2022/11/05 05:18:22;;;;;;;14.03;7.17;;;8.60;99.90;;;;;;4158113;28;20523;-77
2022/11/05 05:22:44;;;;;;;16.73;7.30;;;7.80;99.90;;;;;;4146022;28;20913;-76
2022/11/05 05:24:45;;;;;;;13.30;7.43;;;7.80;99.90;;;;;;4143727;28;20472;-76
2022/11/05 05:26:49;;;;;;;15.60;7.30;;;7.80;99.90;;;;;;4146843;28;20466;-76
2022/11/05 05:28:52;;;;;;;12.03;7.00;;;7.80;99.90;;;;;;4152686;28;20490;-78
2022/11/05 05:30:59;;;;;;;13.43;7.00;;;7.70;99.90;;;;;;4144956;28;20896;-77
2022/11/05 05:33:02;;;;;;;14.37;7.53;;;7.70;99.90;;;;;;4144328;28;20464;-77
2022/11/05 05:35:05;;;;;;;14.20;7.03;;;7.70;99.90;;;;;;4144851;28;20454;-76
2022/11/05 05:37:07;;;;;;;14.60;6.93;;;7.70;99.90;;;;;;4146472;28;20543;-77
2022/11/05 05:39:10;;;;;;;16.70;7.47;;;7.70;99.90;;;;;;4142584;28;20495;-76
2022/11/05 05:41:11;;;;;;;12.53;6.73;;;7.60;99.90;;;;;;4145276;28;20484;-77
2022/11/05 05:43:13;;;;;;;15.17;7.13;;;7.60;99.90;;;;;;4144623;28;20460;-76
2022/11/05 05:45:17;;;;;;;14.93;6.97;;;7.80;99.90;;;;;;4145884;28;20684;-78
2022/11/05 05:47:19;;;;;;;13.77;7.63;;;7.50;99.90;;;;;;4143874;28;20830;-76
2022/11/05 05:49:20;;;;;;;14.00;7.50;;;7.50;99.90;;;;;;4145010;28;20493;-77
2022/11/05 05:51:22;;;;;;;14.43;7.43;;;7.50;99.90;;;;;;4197673;23;20550;-78
2022/11/05 05:53:24;;;;;;;13.67;6.63;;;7.50;99.90;;;;;;4183189;28;20463;-77
2022/11/05 05:55:26;;;;;;;10.10;6.20;;;7.40;99.90;;;;;;4185870;28;20852;-78
2022/11/05 05:57:28;;;;;;;13.63;7.23;;;7.40;99.90;;;;;;4179530;28;20491;-77
2022/11/05 05:59:30;;;;;;;16.40;7.43;;;7.40;99.90;;;;;;4180848;28;21026;-79
2022/11/05 06:01:33;;;;;;;12.43;6.70;;;7.40;99.90;;;;;;4180646;28;20509;-78
2022/11/05 06:03:35;;;;;;;16.87;7.63;;;7.30;99.90;;;;;;4159439;28;20987;-79
2022/11/05 06:05:37;;;;;;;12.83;6.73;;;7.30;99.90;;;;;;4161849;28;20883;-79
2022/11/05 06:07:39;;;;;;;13.17;6.53;;;7.40;99.90;;;;;;4163114;28;20450;-78
2022/11/05 06:09:40;;;;;;;13.27;6.63;;;7.30;99.90;;;;;;4163411;28;20946;-77
2022/11/05 06:11:43;;;;;;;11.80;6.80;;;7.30;99.90;;;;;;4168115;28;20488;-78
2022/11/05 06:13:44;;;;;;;12.70;7.20;;;7.30;99.90;;;;;;4166330;28;20909;-77
2022/11/05 06:15:46;;;;;;;13.00;6.30;;;7.30;99.90;;;;;;4171141;28;20840;-78
2022/11/05 06:17:49;;;;;;;11.53;5.83;;;7.20;99.90;;;;;;4169946;28;20530;-77
2022/11/05 06:19:51;;;;;;;10.40;6.10;;;7.20;99.90;;;;;;4172426;28;20449;-78
2022/11/05 06:21:53;;;;;;;11.13;6.00;;;7.20;99.90;;;;;;4169441;28;20463;-79
2022/11/05 06:23:55;;;;;;;11.07;5.93;;;7.20;99.90;;;;;;4168721;28;20511;-78
2022/11/05 06:25:59;;;;;;;11.47;5.90;;;7.20;99.90;;;;;;4170693;28;20457;-77
2022/11/05 06:28:01;;;;;;;10.17;6.30;;;7.20;99.90;;;;;;4167822;28;20463;-78
2022/11/05 06:30:04;;;;;;;10.90;6.00;;;7.10;99.90;;;;;;4169248;28;20477;-78
2022/11/05 06:32:06;;;;;;;11.80;6.03;;;7.10;99.90;;;;;;4181899;28;20460;-79
2022/11/05 06:34:09;;;;;;;14.90;6.83;;;7.10;99.90;;;;;;4181801;28;20455;-78
2022/11/05 06:36:14;;;;;;;12.40;7.23;;;7.10;99.90;;;;;;4178646;28;20483;-77
2022/11/05 06:38:16;;;;;;;11.93;6.80;;;7.10;99.90;;;;;;4174002;28;21003;-78
2022/11/05 06:40:18;;;;;;;13.50;7.30;;;7.10;99.90;;;;;;4155107;28;20534;-78
2022/11/05 06:42:21;;;;;;;12.43;6.63;;;7.10;99.90;;;;;;4162633;28;20537;-78
2022/11/05 06:44:22;;;;;;;12.17;6.70;;;7.00;99.90;;;;;;4161307;28;20487;-77
2022/11/05 06:46:24;;;;;;;12.70;6.87;;;7.00;99.90;;;;;;4163104;28;20489;-78
2022/11/05 06:48:27;;;;;;;13.30;6.43;;;7.00;99.90;;;;;;4159766;28;20501;-78
2022/11/05 06:50:30;;;;;;;10.33;5.97;;;7.00;99.90;;;;;;4163414;28;20571;-78
2022/11/05 06:52:32;;;;;;;13.53;6.47;;;7.00;99.90;;;;;;4168841;28;20493;-80
2022/11/05 06:54:34;;;;;;;9.87;5.87;;;6.90;99.90;;;;;;4175399;28;20456;-78
2022/11/05 06:56:36;;;;;;;12.10;6.30;;;7.00;99.90;;;;;;4162676;28;20485;-77
2022/11/05 06:58:38;;;;;;;11.77;6.57;;;7.00;99.90;;;;;;4161357;28;20485;-79
2022/11/05 07:00:40;;;;;;;9.23;5.70;;;7.00;99.90;;;;;;4165240;28;20551;-80
2022/11/05 07:02:42;;;;;;;11.97;6.00;;;6.90;99.90;;;;;;4157629;28;20903;-80
2022/11/05 07:04:44;;;;;;;13.13;6.80;;;6.90;99.90;;;;;;4161371;28;20459;-78
2022/11/05 07:06:47;;;;;;;10.67;6.10;;;7.00;99.90;;;;;;4186775;28;20455;-79
2022/11/05 07:08:49;;;;;;;10.57;6.07;;;6.90;99.90;;;;;;4172930;28;20471;-79
2022/11/05 07:10:50;;;;;;;14.73;6.50;;;6.90;99.90;;;;;;4172281;28;20483;-79
2022/11/05 07:12:52;;;;;;;11.23;6.30;;;6.90;99.90;;;;;;4173120;28;20495;-78
2022/11/05 07:14:54;;;;;;;11.80;6.47;;;6.90;99.90;;;;;;4188563;28;20459;-78
2022/11/05 07:16:57;;;;;;;10.67;6.13;;;7.00;99.90;;;;;;4162598;28;20970;-79
2022/11/05 07:18:59;;;;;;;9.90;5.83;;;6.90;99.90;;;;;;4162478;28;20587;-78
2022/11/05 07:21:01;;;;;;;11.23;5.93;;;6.90;99.90;;;;;;4159548;28;20486;-80
2022/11/05 07:23:05;;;;;;;13.77;6.80;;;6.90;99.90;;;;;;4156144;28;20483;-79
2022/11/05 07:25:08;;;;;;;13.43;6.67;;;6.90;99.90;;;;;;4177903;28;20476;-79
2022/11/05 07:27:10;;;;;;;12.10;6.70;;;6.90;99.90;;;;;;4165624;28;20713;-78
2022/11/05 07:29:12;;;;;;;10.77;5.90;;;6.90;99.90;;;;;;4157836;28;20463;-78
2022/11/05 07:31:14;;;;;;;15.83;7.30;;;6.90;99.90;;;;;;4161315;28;21079;-79
2022/11/05 07:33:15;;;;;;;11.73;6.63;;;6.90;99.90;;;;;;4160929;28;20938;-78
2022/11/05 07:35:18;;;;;;;11.50;6.50;;;6.90;99.90;;;;;;4162429;28;20467;-79
2022/11/05 07:37:19;;;;;;;15.73;7.87;;;6.90;99.90;;;;;;4173259;28;20547;-79
2022/11/05 07:39:23;;;;;;;21.30;10.60;;;6.80;99.90;;;;;;4160095;28;20464;-78
2022/11/05 07:41:25;;;;;;;21.70;10.67;;;6.90;99.90;;;;;;4170334;28;20873;-77
2022/11/05 07:43:27;;;;;;;18.53;9.73;;;6.90;99.90;;;;;;4158309;28;20491;-78
2022/11/05 07:45:30;;;;;;;21.40;9.70;;;6.90;99.90;;;;;;4157446;28;20461;-78
2022/11/05 07:47:32;;;;;;;19.43;10.83;;;6.90;99.90;;;;;;4158021;28;20503;-79
2022/11/05 07:49:34;;;;;;;20.57;8.80;;;6.90;99.90;;;;;;4174889;28;20468;-78
2022/11/05 07:51:36;;;;;;;22.30;9.90;;;7.30;99.90;;;;;;4171615;28;20538;-78
2022/11/05 07:53:37;;;;;;;18.70;9.60;;;6.90;99.90;;;;;;4158545;28;20468;-78
2022/11/05 07:55:42;;;;;;;19.37;9.47;;;6.90;99.90;;;;;;4163310;28;20487;-78
2022/11/05 07:57:45;;;;;;;21.97;10.67;;;6.90;99.90;;;;;;4158883;28;20476;-79
2022/11/05 07:59:47;;;;;;;21.37;11.17;;;6.90;99.90;;;;;;4151300;28;21011;-78
2022/11/05 08:01:49;;;;;;;24.70;10.47;;;6.90;99.90;;;;;;4151518;28;21098;-78
2022/11/05 08:03:51;;;;;;;20.10;10.50;;;7.00;99.90;;;;;;4158616;28;21023;-79
2022/11/05 08:05:53;;;;;;;24.87;11.47;;;7.00;99.90;;;;;;4159117;28;20518;-78
2022/11/05 08:07:55;;;;;;;24.50;11.83;;;7.00;99.90;;;;;;4175567;28;21042;-79
2022/11/05 08:09:57;;;;;;;19.20;10.70;;;7.00;99.90;;;;;;4157882;28;20650;-78
2022/11/05 08:12:00;;;;;;;19.10;10.73;;;7.00;99.90;;;;;;4173432;28;20497;-79
2022/11/05 08:14:02;;;;;;;27.00;12.20;;;7.10;99.90;;;;;;4177222;28;21014;-79
2022/11/05 08:16:06;;;;;;;22.47;10.77;;;7.10;99.90;;;;;;4172776;28;20491;-79
2022/11/05 08:18:11;;;;;;;20.40;11.67;;;7.10;99.90;;;;;;4159588;28;20570;-78
2022/11/05 08:20:14;;;;;;;21.53;10.93;;;7.20;99.90;;;;;;4169174;28;20584;-79
2022/11/05 08:22:16;;;;;;;22.90;11.30;;;7.20;99.90;;;;;;4173929;28;20465;-78
2022/11/05 08:24:18;;;;;;;23.10;11.60;;;7.20;99.90;;;;;;4159228;28;20475;-78
2022/11/05 08:26:19;;;;;;;22.87;10.83;;;7.30;99.90;;;;;;4161480;28;20457;-79
2022/11/05 08:28:24;;;;;;;20.10;10.27;;;7.30;99.90;;;;;;4163278;28;20450;-78
2022/11/05 08:30:26;;;;;;;21.13;10.23;;;7.30;99.90;;;;;;4170579;28;20809;-79
2022/11/05 08:32:28;;;;;;;21.17;9.63;;;7.40;99.90;;;;;;4159607;28;20462;-79
2022/11/05 08:34:30;;;;;;;17.97;9.43;;;7.40;99.90;;;;;;4159889;28;20461;-79
2022/11/05 08:36:32;;;;;;;19.60;9.27;;;7.50;99.90;;;;;;4160783;28;21099;-79
2022/11/05 08:38:33;;;;;;;21.10;9.37;;;7.50;99.90;;;;;;4167036;28;20564;-78
2022/11/05 08:40:36;;;;;;;18.77;9.03;;;7.50;99.90;;;;;;4178237;28;20502;-79
2022/11/05 08:42:38;;;;;;;17.80;9.10;;;7.60;99.90;;;;;;4156484;28;20457;-79
2022/11/05 08:44:41;;;;;;;21.27;8.30;;;7.60;99.90;;;;;;4156207;28;20915;-79
2022/11/05 08:46:44;;;;;;;18.20;8.37;;;7.70;99.90;;;;;;4172753;28;20851;-79
2022/11/05 08:48:46;;;;;;;14.07;7.73;;;7.70;99.90;;;;;;4158140;28;20468;-78
2022/11/05 08:50:49;;;;;;;16.13;8.27;;;7.70;99.90;;;;;;4173083;28;20487;-79
2022/11/05 08:52:51;;;;;;;17.60;8.47;;;7.80;99.90;;;;;;4155931;28;20461;-79
2022/11/05 08:54:52;;;;;;;14.17;7.80;;;7.80;99.90;;;;;;4162053;28;21222;-79
2022/11/05 08:56:54;;;;;;;16.23;7.23;;;7.90;99.90;;;;;;4155761;28;20878;-79
2022/11/05 08:58:56;;;;;;;15.50;7.97;;;7.90;99.90;;;;;;4155666;28;20514;-78
2022/11/05 09:00:59;;;;;;;12.50;6.90;;;8.00;99.90;;;;;;4155573;28;21026;-78
2022/11/05 09:03:03;;;;;;;14.70;7.00;;;8.00;99.90;;;;;;4158309;28;20533;-79
2022/11/05 09:05:06;;;;;;;14.50;6.50;;;8.10;99.90;;;;;;4162543;28;20493;-77
2022/11/05 09:07:07;;;;;;;17.60;7.17;;;8.10;99.90;;;;;;4169836;28;21056;-78
2022/11/05 09:09:09;;;;;;;17.20;7.67;;;8.20;99.90;;;;;;4176689;28;20488;-79
2022/11/05 09:11:11;;;;;;;13.90;6.43;;;8.20;99.90;;;;;;4172678;28;20489;-77
2022/11/05 09:13:13;;;;;;;15.03;6.40;;;8.20;99.90;;;;;;4158412;28;20533;-78
2022/11/05 09:15:15;;;;;;;14.40;6.13;;;8.30;99.90;;;;;;4158096;28;20489;-77
2022/11/05 09:17:20;;;;;;;16.43;5.97;;;8.40;99.90;;;;;;4169269;28;20511;-78
2022/11/05 09:19:22;;;;;;;13.67;5.60;;;8.40;99.90;;;;;;4158820;28;20555;-78
2022/11/05 09:21:24;;;;;;;14.03;5.67;;;8.40;99.90;;;;;;4167562;28;20469;-78
2022/11/05 09:23:26;;;;;;;13.23;5.43;;;8.50;99.90;;;;;;4155372;28;20450;-79
2022/11/05 09:25:28;;;;;;;12.33;4.70;;;8.50;99.90;;;;;;4163305;28;20452;-77
2022/11/05 09:27:30;;;;;;;11.27;4.83;;;8.60;99.90;;;;;;4169874;28;20520;-77
2022/11/05 09:29:32;;;;;;;16.23;5.77;;;8.60;99.90;;;;;;4163843;28;20517;-78
2022/11/05 09:31:34;;;;;;;11.17;4.90;;;8.70;99.90;;;;;;4159168;28;20585;-78
2022/11/05 09:33:39;;;;;;;11.70;5.17;;;8.80;99.90;;;;;;4161083;28;20899;-77
2022/11/05 09:35:41;;;;;;;10.30;5.27;;;8.80;99.90;;;;;;4164203;28;20952;-79
2022/11/05 09:37:43;;;;;;;18.50;5.33;;;8.80;99.90;;;;;;4156544;28;20456;-78
2022/11/05 09:39:45;;;;;;;13.53;4.43;;;8.90;99.90;;;;;;4169979;28;20293;-79
2022/11/05 09:41:47;;;;;;;10.97;4.63;;;9.00;99.90;;;;;;4160356;28;20560;-78
2022/11/05 09:43:52;;;;;;;13.40;4.60;;;9.00;99.90;;;;;;4170707;28;20488;-77
2022/11/05 09:45:57;;;;;;;17.87;4.90;;;9.10;99.90;;;;;;4170420;28;20460;-79
2022/11/05 09:48:03;;;;;;;12.10;5.07;;;9.10;99.90;;;;;;4177370;28;20474;-80
2022/11/05 09:50:14;;;;;;;13.97;5.13;;;9.20;99.90;;;;;;4174775;28;20214;-77
2022/11/05 09:52:23;;;;;;;12.87;4.83;;;9.30;99.90;;;;;;4174215;28;20546;-78
2022/11/05 09:54:27;;;;;;;15.27;5.97;;;9.30;99.90;;;;;;4163842;28;20242;-77
2022/11/05 09:56:33;;;;;;;10.63;4.83;;;9.40;99.90;;;;;;4161800;28;20230;-78
2022/11/05 09:58:42;;;;;;;13.37;4.90;;;9.40;99.90;;;;;;4154269;28;20285;-78
2022/11/05 10:00:47;;;;;;;17.33;5.03;;;9.40;99.90;;;;;;4158125;28;20246;-79
2022/11/05 10:02:52;;;;;;;14.63;4.73;;;9.50;99.90;;;;;;4158248;28;20219;-79
2022/11/05 10:04:56;;;;;;;10.23;4.80;;;9.50;99.90;;;;;;4155659;28;20268;-78
2022/11/05 10:07:02;;;;;;;9.07;4.47;;;9.60;99.90;;;;;;4173501;28;20733;-79
2022/11/05 10:09:10;;;;;;;15.20;4.13;;;9.70;99.90;;;;;;4160436;28;20286;-79
2022/11/05 10:11:16;;;;;;;18.77;4.90;;;9.70;99.90;;;;;;4159488;28;20219;-79
2022/11/05 10:13:24;;;;;;;11.53;4.43;;;9.80;99.90;;;;;;4158588;28;20230;-79
2022/11/05 10:15:29;;;;;;;12.67;4.10;;;9.80;99.90;;;;;;4162568;28;20290;-79
2022/11/05 10:17:33;;;;;;;11.37;3.73;;;9.90;99.90;;;;;;4160312;28;20211;-79
2022/11/05 10:19:41;;;;;;;11.47;4.07;;;9.90;99.90;;;;;;4158668;28;21074;-79
2022/11/05 10:21:45;;;;;;;12.13;4.30;;;10.00;99.90;;;;;;4159200;28;20230;-79
2022/11/05 10:23:49;;;;;;;13.17;4.40;;;10.00;99.90;;;;;;4155255;28;20640;-79
2022/11/05 10:25:55;;;;;;;13.07;4.63;;;10.10;99.90;;;;;;4155899;28;20299;-80
2022/11/05 10:27:59;;;;;;;11.27;4.37;;;10.20;99.90;;;;;;4160822;28;20200;-79
2022/11/05 10:30:01;;;;;;;12.07;4.60;;;10.20;99.90;;;;;;4172224;28;20220;-79
2022/11/05 10:32:06;;;;;;;13.13;4.47;;;10.30;99.90;;;;;;4157459;28;20242;-79
2022/11/05 10:34:10;;;;;;;10.53;4.07;;;10.30;99.90;;;;;;4153998;28;20220;-80
2022/11/05 10:36:18;;;;;;;8.80;4.07;;;10.40;99.90;;;;;;4155582;28;20263;-79
2022/11/05 10:38:20;;;;;;;9.93;4.33;;;10.50;99.90;;;;;;4158445;28;20266;-79
2022/11/05 10:40:34;;;;;;;9.23;3.50;;;10.50;99.90;;;;;;4160330;28;20251;-80
2022/11/05 10:42:50;;;;;;;8.33;3.63;;;10.60;99.90;;;;;;4169864;28;20297;-80
2022/11/05 10:44:59;;;;;;;10.43;3.63;;;10.60;99.90;;;;;;4173970;28;20287;-79
2022/11/05 10:47:26;;;;;;;6.10;2.90;;;10.70;99.90;;;;;;4159708;28;20306;-79
2022/11/05 10:49:41;;;;;;;8.43;3.10;;;10.80;99.90;;;;;;4155451;28;20200;-79
2022/11/05 10:51:43;;;;;;;8.97;2.70;;;10.90;99.90;;;;;;4155273;28;20229;-79
2022/11/05 10:53:52;;;;;;;7.83;2.60;;;11.00;99.90;;;;;;4157418;28;20210;-79
2022/11/05 10:55:57;;;;;;;8.40;2.90;;;11.10;99.90;;;;;;4153288;28;20214;-79
2022/11/05 10:58:10;;;;;;;9.30;2.63;;;11.30;99.90;;;;;;4160756;28;20206;-78
2022/11/05 11:00:27;;;;;;;6.80;2.77;;;11.30;99.90;;;;;;4157679;28;20259;-78
2022/11/05 11:02:29;;;;;;;5.77;2.10;;;11.40;99.90;;;;;;4162326;28;20234;-78
2022/11/05 11:04:31;;;;;;;9.80;2.43;;;11.50;99.90;;;;;;4160436;28;20587;-78
2022/11/05 11:06:36;;;;;;;9.77;2.63;;;11.50;99.90;;;;;;4154096;28;20210;-76
2022/11/05 11:08:38;;;;;;;8.37;2.63;;;11.70;99.90;;;;;;4160319;28;20208;-77
2022/11/05 11:10:42;;;;;;;6.63;2.30;;;11.80;99.90;;;;;;4158861;28;20290;-76
2022/11/05 11:12:47;;;;;;;4.03;2.20;;;11.90;99.90;;;;;;4164707;28;20269;-81
2022/11/05 11:15:00;;;;;;;7.07;2.00;;;11.90;99.90;;;;;;4158617;28;20207;-81
2022/11/05 11:17:25;;;;;;;6.23;2.03;;;12.10;99.90;;;;;;4165591;28;20300;-81
2022/11/05 11:19:29;;;;;;;5.57;1.63;;;12.20;99.90;;;;;;4175389;28;20313;-79
2022/11/05 11:21:32;;;;;;;7.73;1.87;;;12.30;99.90;;;;;;4160410;28;20700;-77
2022/11/05 11:23:39;;;;;;;4.97;1.50;;;12.40;99.90;;;;;;4155268;28;20576;-76
2022/11/05 11:25:47;;;;;;;4.17;1.60;;;12.40;99.90;;;;;;4157884;28;20675;-77
2022/11/05 11:27:51;;;;;;;5.93;1.70;;;12.50;99.90;;;;;;4157409;28;20211;-77
2022/11/05 11:29:59;;;;;;;9.27;1.60;;;12.60;99.90;;;;;;4158288;28;20740;-77